sensor_id;sensor_type;location;lat;lon;timestamp;P1;durP1;ratioP1;P2;durP2;ratioP2
23206;SDS011;11773;52.570;13.052;2022-09-25T00:00:04;1.40;;;1.23;;
23206;SDS011;11773;52.570;13.052;2022-09-25T00:02:35;2.27;;;1.80;;
23206;SDS011;11773;52.570;13.052;2022-09-25T00:05:05;1.50;;;1.40;;
23206;SDS011;11773;52.570;13.052;2022-09-25T00:07:35;1.53;;;1.43;;
23206;SDS011;11773;52.570;13.052;2022-09-25T00:10:05;1.00;;;1.00;;
23206;SDS011;11773;52.570;13.052;2022-09-25T00:12:34;1.10;;;1.00;;
23206;SDS011;11773;52.570;13.052;2022-09-25T00:15:04;1.13;;;1.07;;
23206;SDS011;11773;52.570;13.052;2022-09-25T00:17:36;1.47;;;1.37;;
23206;SDS011;11773;52.570;13.052;2022-09-25T00:20:05;1.23;;;1.13;;
23206;SDS011;11773;52.570;13.052;2022-09-25T00:22:36;1.10;;;1.00;;
23206;SDS011;11773;52.570;13.052;2022-09-25T00:25:05;1.20;;;1.10;;
23206;SDS011;11773;52.570;13.052;2022-09-25T00:27:41;0.93;;;0.93;;
23206;SDS011;11773;52.570;13.052;2022-09-25T00:30:12;1.30;;;1.20;;
23206;SDS011;11773;52.570;13.052;2022-09-25T00:32:41;1.00;;;1.00;;
23206;SDS011;11773;52.570;13.052;2022-09-25T00:35:11;1.10;;;1.10;;
23206;SDS011;11773;52.570;13.052;2022-09-25T00:37:41;1.20;;;1.10;;
23206;SDS011;11773;52.570;13.052;2022-09-25T00:40:10;1.30;;;1.20;;
23206;SDS011;11773;52.570;13.052;2022-09-25T00:42:40;1.63;;;1.10;;
23206;SDS011;11773;52.570;13.052;2022-09-25T00:45:13;1.00;;;0.90;;
23206;SDS011;11773;52.570;13.052;2022-09-25T00:51:07;0.90;;;0.90;;
23206;SDS011;11773;52.570;13.052;2022-09-25T00:53:26;1.20;;;1.10;;
23206;SDS011;11773;52.570;13.052;2022-09-25T00:55:58;0.70;;;0.70;;
23206;SDS011;11773;52.570;13.052;2022-09-25T00:58:32;0.77;;;0.77;;
23206;SDS011;11773;52.570;13.052;2022-09-25T01:01:05;0.80;;;0.80;;
23206;SDS011;11773;52.570;13.052;2022-09-25T01:03:36;0.93;;;0.93;;
23206;SDS011;11773;52.570;13.052;2022-09-25T01:06:08;1.07;;;1.07;;
23206;SDS011;11773;52.570;13.052;2022-09-25T01:08:41;1.10;;;1.00;;
23206;SDS011;11773;52.570;13.052;2022-09-25T01:11:13;1.00;;;1.00;;
23206;SDS011;11773;52.570;13.052;2022-09-25T01:13:43;0.70;;;0.70;;
23206;SDS011;11773;52.570;13.052;2022-09-25T01:16:21;0.80;;;0.80;;
23206;SDS011;11773;52.570;13.052;2022-09-25T01:19:05;1.27;;;1.17;;
23206;SDS011;11773;52.570;13.052;2022-09-25T01:21:57;0.90;;;0.90;;
23206;SDS011;11773;52.570;13.052;2022-09-25T01:24:42;0.70;;;0.70;;
23206;SDS011;11773;52.570;13.052;2022-09-25T01:27:41;1.20;;;1.10;;
23206;SDS011;11773;52.570;13.052;2022-09-25T01:30:26;1.10;;;1.03;;
23206;SDS011;11773;52.570;13.052;2022-09-25T01:33:05;1.10;;;1.00;;
23206;SDS011;11773;52.570;13.052;2022-09-25T01:35:51;0.83;;;0.83;;
23206;SDS011;11773;52.570;13.052;2022-09-25T01:38:40;1.40;;;1.30;;
23206;SDS011;11773;52.570;13.052;2022-09-25T01:43:56;1.23;;;0.83;;
23206;SDS011;11773;52.570;13.052;2022-09-25T01:46:32;1.13;;;1.03;;
23206;SDS011;11773;52.570;13.052;2022-09-25T01:49:31;0.80;;;0.80;;
23206;SDS011;11773;52.570;13.052;2022-09-25T01:52:12;0.80;;;0.80;;
23206;SDS011;11773;52.570;13.052;2022-09-25T01:54:46;0.83;;;0.83;;
23206;SDS011;11773;52.570;13.052;2022-09-25T01:57:39;0.87;;;0.87;;
23206;SDS011;11773;52.570;13.052;2022-09-25T02:00:20;0.80;;;0.80;;
23206;SDS011;11773;52.570;13.052;2022-09-25T02:02:53;0.93;;;0.90;;
23206;SDS011;11773;52.570;13.052;2022-09-25T02:05:28;1.00;;;1.00;;
23206;SDS011;11773;52.570;13.052;2022-09-25T02:08:04;1.47;;;0.90;;
23206;SDS011;11773;52.570;13.052;2022-09-25T02:10:45;0.60;;;0.60;;
23206;SDS011;11773;52.570;13.052;2022-09-25T02:13:15;1.03;;;1.00;;
23206;SDS011;11773;52.570;13.052;2022-09-25T02:15:50;1.57;;;1.20;;
23206;SDS011;11773;52.570;13.052;2022-09-25T02:18:24;0.90;;;0.90;;
23206;SDS011;11773;52.570;13.052;2022-09-25T02:21:28;0.70;;;0.70;;
23206;SDS011;11773;52.570;13.052;2022-09-25T02:24:19;0.90;;;0.90;;
23206;SDS011;11773;52.570;13.052;2022-09-25T02:26:55;0.80;;;0.80;;
23206;SDS011;11773;52.570;13.052;2022-09-25T02:29:25;0.87;;;0.87;;
23206;SDS011;11773;52.570;13.052;2022-09-25T02:31:56;0.80;;;0.80;;
23206;SDS011;11773;52.570;13.052;2022-09-25T02:34:29;0.80;;;0.80;;
23206;SDS011;11773;52.570;13.052;2022-09-25T02:36:59;0.80;;;0.80;;
23206;SDS011;11773;52.570;13.052;2022-09-25T02:39:29;0.83;;;0.83;;
23206;SDS011;11773;52.570;13.052;2022-09-25T02:44:55;1.00;;;1.00;;
23206;SDS011;11773;52.570;13.052;2022-09-25T02:50:20;1.03;;;1.00;;
23206;SDS011;11773;52.570;13.052;2022-09-25T02:53:01;1.10;;;1.00;;
23206;SDS011;11773;52.570;13.052;2022-09-25T02:55:49;0.80;;;0.80;;
23206;SDS011;11773;52.570;13.052;2022-09-25T02:58:28;0.73;;;0.73;;
23206;SDS011;11773;52.570;13.052;2022-09-25T03:01:05;0.80;;;0.80;;
23206;SDS011;11773;52.570;13.052;2022-09-25T03:03:39;0.80;;;0.80;;
23206;SDS011;11773;52.570;13.052;2022-09-25T03:06:11;0.87;;;0.87;;
23206;SDS011;11773;52.570;13.052;2022-09-25T03:08:43;0.80;;;0.80;;
23206;SDS011;11773;52.570;13.052;2022-09-25T03:11:17;1.07;;;1.03;;
23206;SDS011;11773;52.570;13.052;2022-09-25T03:13:59;1.10;;;1.00;;
23206;SDS011;11773;52.570;13.052;2022-09-25T03:16:46;1.03;;;1.00;;
23206;SDS011;11773;52.570;13.052;2022-09-25T03:19:28;0.97;;;0.90;;
23206;SDS011;11773;52.570;13.052;2022-09-25T03:21:55;1.87;;;1.10;;
23206;SDS011;11773;52.570;13.052;2022-09-25T03:24:25;0.90;;;0.90;;
23206;SDS011;11773;52.570;13.052;2022-09-25T03:26:54;0.80;;;0.80;;
23206;SDS011;11773;52.570;13.052;2022-09-25T03:29:24;0.80;;;0.80;;
23206;SDS011;11773;52.570;13.052;2022-09-25T03:31:55;0.80;;;0.80;;
23206;SDS011;11773;52.570;13.052;2022-09-25T03:34:25;0.90;;;0.90;;
23206;SDS011;11773;52.570;13.052;2022-09-25T03:36:54;1.00;;;1.00;;
23206;SDS011;11773;52.570;13.052;2022-09-25T03:39:23;0.90;;;0.90;;
23206;SDS011;11773;52.570;13.052;2022-09-25T03:41:53;1.10;;;1.10;;
23206;SDS011;11773;52.570;13.052;2022-09-25T03:44:23;0.93;;;0.93;;
23206;SDS011;11773;52.570;13.052;2022-09-25T03:46:52;0.70;;;0.70;;
23206;SDS011;11773;52.570;13.052;2022-09-25T03:49:22;0.90;;;0.90;;
23206;SDS011;11773;52.570;13.052;2022-09-25T03:51:51;0.80;;;0.80;;
23206;SDS011;11773;52.570;13.052;2022-09-25T03:54:21;0.80;;;0.80;;
23206;SDS011;11773;52.570;13.052;2022-09-25T03:56:50;1.20;;;0.90;;
23206;SDS011;11773;52.570;13.052;2022-09-25T03:59:20;0.90;;;0.90;;
23206;SDS011;11773;52.570;13.052;2022-09-25T04:01:50;0.80;;;0.80;;
23206;SDS011;11773;52.570;13.052;2022-09-25T04:04:19;1.20;;;1.10;;
23206;SDS011;11773;52.570;13.052;2022-09-25T04:06:49;0.80;;;0.80;;
23206;SDS011;11773;52.570;13.052;2022-09-25T04:09:18;0.50;;;0.50;;
23206;SDS011;11773;52.570;13.052;2022-09-25T04:11:48;0.90;;;0.90;;
23206;SDS011;11773;52.570;13.052;2022-09-25T04:14:17;0.80;;;0.80;;
23206;SDS011;11773;52.570;13.052;2022-09-25T04:16:46;0.90;;;0.80;;
23206;SDS011;11773;52.570;13.052;2022-09-25T04:19:17;0.80;;;0.80;;
23206;SDS011;11773;52.570;13.052;2022-09-25T04:21:47;0.80;;;0.80;;
23206;SDS011;11773;52.570;13.052;2022-09-25T04:24:16;0.90;;;0.90;;
23206;SDS011;11773;52.570;13.052;2022-09-25T04:27:04;0.73;;;0.73;;
23206;SDS011;11773;52.570;13.052;2022-09-25T04:29:34;0.90;;;0.90;;
23206;SDS011;11773;52.570;13.052;2022-09-25T04:32:04;0.73;;;0.73;;
23206;SDS011;11773;52.570;13.052;2022-09-25T04:34:51;0.70;;;0.70;;
23206;SDS011;11773;52.570;13.052;2022-09-25T04:37:21;1.00;;;0.90;;
23206;SDS011;11773;52.570;13.052;2022-09-25T04:39:57;0.90;;;0.90;;
23206;SDS011;11773;52.570;13.052;2022-09-25T04:42:24;0.90;;;0.90;;
23206;SDS011;11773;52.570;13.052;2022-09-25T04:44:54;1.10;;;1.00;;
23206;SDS011;11773;52.570;13.052;2022-09-25T04:47:26;0.67;;;0.67;;
23206;SDS011;11773;52.570;13.052;2022-09-25T04:49:58;1.07;;;0.97;;
23206;SDS011;11773;52.570;13.052;2022-09-25T04:52:28;1.20;;;1.10;;
23206;SDS011;11773;52.570;13.052;2022-09-25T04:54:57;0.73;;;0.73;;
23206;SDS011;11773;52.570;13.052;2022-09-25T04:57:27;0.77;;;0.77;;
23206;SDS011;11773;52.570;13.052;2022-09-25T04:59:58;1.00;;;0.90;;
23206;SDS011;11773;52.570;13.052;2022-09-25T05:02:28;1.00;;;0.90;;
23206;SDS011;11773;52.570;13.052;2022-09-25T05:04:57;0.70;;;0.70;;
23206;SDS011;11773;52.570;13.052;2022-09-25T05:07:27;1.10;;;1.00;;
23206;SDS011;11773;52.570;13.052;2022-09-25T05:09:56;1.03;;;1.03;;
23206;SDS011;11773;52.570;13.052;2022-09-25T05:12:26;1.00;;;1.00;;
23206;SDS011;11773;52.570;13.052;2022-09-25T05:14:55;1.10;;;1.00;;
23206;SDS011;11773;52.570;13.052;2022-09-25T05:17:25;0.83;;;0.80;;
23206;SDS011;11773;52.570;13.052;2022-09-25T05:19:54;0.90;;;0.90;;
23206;SDS011;11773;52.570;13.052;2022-09-25T05:22:24;0.63;;;0.63;;
23206;SDS011;11773;52.570;13.052;2022-09-25T05:24:54;1.33;;;1.23;;
23206;SDS011;11773;52.570;13.052;2022-09-25T05:27:25;1.20;;;1.10;;
23206;SDS011;11773;52.570;13.052;2022-09-25T05:29:54;1.17;;;1.07;;
23206;SDS011;11773;52.570;13.052;2022-09-25T05:32:24;1.10;;;1.00;;
23206;SDS011;11773;52.570;13.052;2022-09-25T05:34:53;0.80;;;0.80;;
23206;SDS011;11773;52.570;13.052;2022-09-25T05:37:23;0.93;;;0.90;;
23206;SDS011;11773;52.570;13.052;2022-09-25T05:39:52;0.90;;;0.90;;
23206;SDS011;11773;52.570;13.052;2022-09-25T05:42:22;0.93;;;0.93;;
23206;SDS011;11773;52.570;13.052;2022-09-25T05:44:51;1.10;;;1.00;;
23206;SDS011;11773;52.570;13.052;2022-09-25T05:47:21;1.17;;;1.10;;
23206;SDS011;11773;52.570;13.052;2022-09-25T05:49:50;1.20;;;1.10;;
23206;SDS011;11773;52.570;13.052;2022-09-25T05:52:20;0.90;;;0.90;;
23206;SDS011;11773;52.570;13.052;2022-09-25T05:54:49;1.17;;;1.17;;
23206;SDS011;11773;52.570;13.052;2022-09-25T05:57:19;1.03;;;1.03;;
23206;SDS011;11773;52.570;13.052;2022-09-25T05:59:48;1.07;;;1.00;;
23206;SDS011;11773;52.570;13.052;2022-09-25T06:02:18;1.10;;;1.10;;
23206;SDS011;11773;52.570;13.052;2022-09-25T06:04:47;1.30;;;1.20;;
23206;SDS011;11773;52.570;13.052;2022-09-25T06:07:16;1.20;;;1.10;;
23206;SDS011;11773;52.570;13.052;2022-09-25T06:09:46;0.90;;;0.90;;
23206;SDS011;11773;52.570;13.052;2022-09-25T06:12:16;1.37;;;1.27;;
23206;SDS011;11773;52.570;13.052;2022-09-25T06:14:45;1.70;;;1.60;;
23206;SDS011;11773;52.570;13.052;2022-09-25T06:17:15;1.40;;;1.30;;
23206;SDS011;11773;52.570;13.052;2022-09-25T06:19:44;1.90;;;1.80;;
23206;SDS011;11773;52.570;13.052;2022-09-25T06:22:15;2.27;;;2.03;;
23206;SDS011;11773;52.570;13.052;2022-09-25T06:24:44;2.03;;;1.90;;
23206;SDS011;11773;52.570;13.052;2022-09-25T06:27:14;2.17;;;1.97;;
23206;SDS011;11773;52.570;13.052;2022-09-25T06:29:45;2.30;;;2.10;;
23206;SDS011;11773;52.570;13.052;2022-09-25T06:32:14;2.53;;;2.33;;
23206;SDS011;11773;52.570;13.052;2022-09-25T06:34:44;1.90;;;1.80;;
23206;SDS011;11773;52.570;13.052;2022-09-25T06:37:13;2.97;;;2.30;;
23206;SDS011;11773;52.570;13.052;2022-09-25T06:39:43;2.30;;;2.10;;
23206;SDS011;11773;52.570;13.052;2022-09-25T06:42:12;2.73;;;2.53;;
23206;SDS011;11773;52.570;13.052;2022-09-25T06:44:42;3.10;;;2.70;;
23206;SDS011;11773;52.570;13.052;2022-09-25T06:47:11;2.40;;;2.20;;
23206;SDS011;11773;52.570;13.052;2022-09-25T06:49:42;1.83;;;1.73;;
23206;SDS011;11773;52.570;13.052;2022-09-25T06:52:12;2.03;;;1.83;;
23206;SDS011;11773;52.570;13.052;2022-09-25T06:54:41;2.20;;;2.00;;
23206;SDS011;11773;52.570;13.052;2022-09-25T06:57:11;2.63;;;2.43;;
23206;SDS011;11773;52.570;13.052;2022-09-25T06:59:40;2.53;;;2.30;;
23206;SDS011;11773;52.570;13.052;2022-09-25T07:02:10;2.27;;;2.07;;
23206;SDS011;11773;52.570;13.052;2022-09-25T07:04:57;1.80;;;1.70;;
23206;SDS011;11773;52.570;13.052;2022-09-25T07:07:27;1.90;;;1.80;;
23206;SDS011;11773;52.570;13.052;2022-09-25T07:09:57;1.93;;;1.80;;
23206;SDS011;11773;52.570;13.052;2022-09-25T07:12:27;2.30;;;1.97;;
23206;SDS011;11773;52.570;13.052;2022-09-25T07:14:58;1.60;;;1.50;;
23206;SDS011;11773;52.570;13.052;2022-09-25T07:17:27;1.73;;;1.63;;
23206;SDS011;11773;52.570;13.052;2022-09-25T07:19:57;2.20;;;2.00;;
23206;SDS011;11773;52.570;13.052;2022-09-25T07:22:27;2.37;;;2.17;;
23206;SDS011;11773;52.570;13.052;2022-09-25T07:24:57;1.93;;;1.80;;
23206;SDS011;11773;52.570;13.052;2022-09-25T07:27:26;1.50;;;1.40;;
23206;SDS011;11773;52.570;13.052;2022-09-25T07:29:57;2.10;;;1.90;;
23206;SDS011;11773;52.570;13.052;2022-09-25T07:32:27;2.50;;;2.30;;
23206;SDS011;11773;52.570;13.052;2022-09-25T07:34:57;2.10;;;1.97;;
23206;SDS011;11773;52.570;13.052;2022-09-25T07:37:28;1.50;;;1.40;;
23206;SDS011;11773;52.570;13.052;2022-09-25T07:39:57;1.90;;;1.80;;
23206;SDS011;11773;52.570;13.052;2022-09-25T07:42:27;1.70;;;1.60;;
23206;SDS011;11773;52.570;13.052;2022-09-25T07:44:57;1.47;;;1.37;;
23206;SDS011;11773;52.570;13.052;2022-09-25T07:47:27;1.53;;;1.43;;
23206;SDS011;11773;52.570;13.052;2022-09-25T07:49:57;2.13;;;2.00;;
23206;SDS011;11773;52.570;13.052;2022-09-25T07:52:27;2.60;;;2.40;;
23206;SDS011;11773;52.570;13.052;2022-09-25T07:54:56;2.63;;;2.43;;
23206;SDS011;11773;52.570;13.052;2022-09-25T07:57:26;2.83;;;2.63;;
23206;SDS011;11773;52.570;13.052;2022-09-25T07:59:55;3.30;;;3.00;;
23206;SDS011;11773;52.570;13.052;2022-09-25T08:02:25;3.60;;;3.20;;
23206;SDS011;11773;52.570;13.052;2022-09-25T08:04:55;3.10;;;2.90;;
23206;SDS011;11773;52.570;13.052;2022-09-25T08:07:26;3.43;;;3.13;;
23206;SDS011;11773;52.570;13.052;2022-09-25T08:09:56;2.97;;;2.77;;
23206;SDS011;11773;52.570;13.052;2022-09-25T08:12:25;2.80;;;2.50;;
23206;SDS011;11773;52.570;13.052;2022-09-25T08:14:55;2.27;;;2.07;;
23206;SDS011;11773;52.570;13.052;2022-09-25T08:17:26;2.30;;;2.10;;
23206;SDS011;11773;52.570;13.052;2022-09-25T08:19:57;3.17;;;2.87;;
23206;SDS011;11773;52.570;13.052;2022-09-25T08:22:27;2.73;;;2.53;;
23206;SDS011;11773;52.570;13.052;2022-09-25T08:24:56;3.03;;;2.83;;
23206;SDS011;11773;52.570;13.052;2022-09-25T08:27:28;2.27;;;2.10;;
23206;SDS011;11773;52.570;13.052;2022-09-25T08:29:58;2.20;;;2.00;;
23206;SDS011;11773;52.570;13.052;2022-09-25T08:32:27;2.03;;;1.93;;
23206;SDS011;11773;52.570;13.052;2022-09-25T08:34:58;1.73;;;1.63;;
23206;SDS011;11773;52.570;13.052;2022-09-25T08:37:28;1.93;;;1.83;;
23206;SDS011;11773;52.570;13.052;2022-09-25T08:40:00;2.40;;;2.20;;
23206;SDS011;11773;52.570;13.052;2022-09-25T08:42:33;1.90;;;1.80;;
23206;SDS011;11773;52.570;13.052;2022-09-25T08:45:06;1.90;;;1.80;;
23206;SDS011;11773;52.570;13.052;2022-09-25T08:47:57;2.00;;;1.80;;
23206;SDS011;11773;52.570;13.052;2022-09-25T08:50:44;2.00;;;1.90;;
23206;SDS011;11773;52.570;13.052;2022-09-25T08:53:20;2.17;;;1.97;;
23206;SDS011;11773;52.570;13.052;2022-09-25T08:55:52;2.80;;;2.60;;
23206;SDS011;11773;52.570;13.052;2022-09-25T08:58:48;2.67;;;2.47;;
23206;SDS011;11773;52.570;13.052;2022-09-25T09:01:41;3.07;;;2.37;;
23206;SDS011;11773;52.570;13.052;2022-09-25T09:04:20;1.90;;;1.80;;
23206;SDS011;11773;52.570;13.052;2022-09-25T09:07:15;2.70;;;2.50;;
23206;SDS011;11773;52.570;13.052;2022-09-25T09:09:56;2.43;;;2.23;;
23206;SDS011;11773;52.570;13.052;2022-09-25T09:15:48;1.80;;;1.70;;
23206;SDS011;11773;52.570;13.052;2022-09-25T09:18:22;1.87;;;1.77;;
23206;SDS011;11773;52.570;13.052;2022-09-25T09:21:09;1.67;;;1.57;;
23206;SDS011;11773;52.570;13.052;2022-09-25T09:29:54;1.50;;;1.40;;
23206;SDS011;11773;52.570;13.052;2022-09-25T09:32:50;1.60;;;1.50;;
23206;SDS011;11773;52.570;13.052;2022-09-25T09:35:36;1.70;;;1.60;;
23206;SDS011;11773;52.570;13.052;2022-09-25T09:38:11;1.90;;;1.80;;
23206;SDS011;11773;52.570;13.052;2022-09-25T09:41:10;1.70;;;1.60;;
23206;SDS011;11773;52.570;13.052;2022-09-25T09:46:44;1.50;;;1.40;;
23206;SDS011;11773;52.570;13.052;2022-09-25T09:52:19;1.90;;;1.80;;
23206;SDS011;11773;52.570;13.052;2022-09-25T09:55:04;1.93;;;1.83;;
23206;SDS011;11773;52.570;13.052;2022-09-25T09:57:40;1.87;;;1.77;;
23206;SDS011;11773;52.570;13.052;2022-09-25T10:00:21;1.10;;;1.07;;
23206;SDS011;11773;52.570;13.052;2022-09-25T10:05:47;1.50;;;1.40;;
23206;SDS011;11773;52.570;13.052;2022-09-25T10:08:20;1.50;;;1.40;;
23206;SDS011;11773;52.570;13.052;2022-09-25T10:10:50;1.87;;;1.77;;
23206;SDS011;11773;52.570;13.052;2022-09-25T10:13:22;1.23;;;1.13;;
23206;SDS011;11773;52.570;13.052;2022-09-25T10:21:38;2.03;;;1.90;;
23206;SDS011;11773;52.570;13.052;2022-09-25T10:27:24;2.20;;;2.00;;
23206;SDS011;11773;52.570;13.052;2022-09-25T10:32:42;2.33;;;2.13;;
23206;SDS011;11773;52.570;13.052;2022-09-25T10:38:20;1.63;;;1.53;;
23206;SDS011;11773;52.570;13.052;2022-09-25T10:41:14;1.90;;;1.80;;
23206;SDS011;11773;52.570;13.052;2022-09-25T10:43:51;1.90;;;1.80;;
23206;SDS011;11773;52.570;13.052;2022-09-25T10:49:19;1.80;;;1.70;;
23206;SDS011;11773;52.570;13.052;2022-09-25T10:52:13;1.40;;;1.30;;
23206;SDS011;11773;52.570;13.052;2022-09-25T10:54:48;1.90;;;1.80;;
23206;SDS011;11773;52.570;13.052;2022-09-25T10:57:26;1.40;;;1.30;;
23206;SDS011;11773;52.570;13.052;2022-09-25T11:00:18;1.57;;;1.47;;
23206;SDS011;11773;52.570;13.052;2022-09-25T11:05:46;1.90;;;1.80;;
23206;SDS011;11773;52.570;13.052;2022-09-25T11:08:19;1.80;;;1.70;;
23206;SDS011;11773;52.570;13.052;2022-09-25T11:10:53;2.50;;;2.20;;
23206;SDS011;11773;52.570;13.052;2022-09-25T11:13:27;2.10;;;1.97;;
23206;SDS011;11773;52.570;13.052;2022-09-25T11:16:15;1.10;;;1.10;;
23206;SDS011;11773;52.570;13.052;2022-09-25T11:18:50;1.87;;;1.77;;
23206;SDS011;11773;52.570;13.052;2022-09-25T11:24:23;1.70;;;1.60;;
23206;SDS011;11773;52.570;13.052;2022-09-25T11:27:32;2.03;;;1.83;;
23206;SDS011;11773;52.570;13.052;2022-09-25T11:30:15;1.60;;;1.50;;
23206;SDS011;11773;52.570;13.052;2022-09-25T11:32:44;1.80;;;1.70;;
23206;SDS011;11773;52.570;13.052;2022-09-25T11:35:35;2.10;;;2.00;;
23206;SDS011;11773;52.570;13.052;2022-09-25T11:38:30;1.83;;;1.73;;
23206;SDS011;11773;52.570;13.052;2022-09-25T11:41:39;1.30;;;1.30;;
23206;SDS011;11773;52.570;13.052;2022-09-25T11:44:31;1.77;;;1.67;;
23206;SDS011;11773;52.570;13.052;2022-09-25T11:47:07;1.50;;;1.40;;
23206;SDS011;11773;52.570;13.052;2022-09-25T11:49:51;1.50;;;1.40;;
23206;SDS011;11773;52.570;13.052;2022-09-25T12:01:12;1.93;;;1.80;;
23206;SDS011;11773;52.570;13.052;2022-09-25T12:03:39;1.87;;;1.77;;
23206;SDS011;11773;52.570;13.052;2022-09-25T12:06:27;1.57;;;1.47;;
23206;SDS011;11773;52.570;13.052;2022-09-25T12:09:21;1.50;;;1.40;;
23206;SDS011;11773;52.570;13.052;2022-09-25T12:11:55;1.87;;;1.77;;
23206;SDS011;11773;52.570;13.052;2022-09-25T12:14:44;2.40;;;2.20;;
23206;SDS011;11773;52.570;13.052;2022-09-25T12:17:19;2.40;;;2.20;;
23206;SDS011;11773;52.570;13.052;2022-09-25T12:26:15;1.40;;;1.33;;
23206;SDS011;11773;52.570;13.052;2022-09-25T12:32:33;1.47;;;1.37;;
23206;SDS011;11773;52.570;13.052;2022-09-25T12:35:21;1.40;;;1.30;;
23206;SDS011;11773;52.570;13.052;2022-09-25T12:41:07;1.87;;;1.77;;
23206;SDS011;11773;52.570;13.052;2022-09-25T12:46:55;1.73;;;1.63;;
23206;SDS011;11773;52.570;13.052;2022-09-25T12:49:42;1.03;;;1.00;;
23206;SDS011;11773;52.570;13.052;2022-09-25T12:52:21;1.43;;;1.33;;
23206;SDS011;11773;52.570;13.052;2022-09-25T12:55:11;1.60;;;1.50;;
23206;SDS011;11773;52.570;13.052;2022-09-25T12:57:53;1.57;;;1.47;;
23206;SDS011;11773;52.570;13.052;2022-09-25T13:00:26;1.87;;;1.77;;
23206;SDS011;11773;52.570;13.052;2022-09-25T13:08:45;1.47;;;1.37;;
23206;SDS011;11773;52.570;13.052;2022-09-25T13:11:34;1.90;;;1.80;;
23206;SDS011;11773;52.570;13.052;2022-09-25T13:14:20;1.70;;;1.60;;
23206;SDS011;11773;52.570;13.052;2022-09-25T13:17:01;1.30;;;1.20;;
23206;SDS011;11773;52.570;13.052;2022-09-25T13:19:30;1.77;;;1.67;;
23206;SDS011;11773;52.570;13.052;2022-09-25T13:22:08;1.63;;;1.33;;
23206;SDS011;11773;52.570;13.052;2022-09-25T13:25:01;1.43;;;1.33;;
23206;SDS011;11773;52.570;13.052;2022-09-25T13:27:37;1.73;;;1.63;;
23206;SDS011;11773;52.570;13.052;2022-09-25T13:30:21;1.90;;;1.80;;
23206;SDS011;11773;52.570;13.052;2022-09-25T13:32:56;1.67;;;1.57;;
23206;SDS011;11773;52.570;13.052;2022-09-25T13:35:29;1.90;;;1.80;;
23206;SDS011;11773;52.570;13.052;2022-09-25T13:38:10;2.10;;;1.90;;
23206;SDS011;11773;52.570;13.052;2022-09-25T13:40:47;1.63;;;1.53;;
23206;SDS011;11773;52.570;13.052;2022-09-25T13:43:19;1.60;;;1.50;;
23206;SDS011;11773;52.570;13.052;2022-09-25T13:48:49;1.90;;;1.80;;
23206;SDS011;11773;52.570;13.052;2022-09-25T13:54:02;1.63;;;1.53;;
23206;SDS011;11773;52.570;13.052;2022-09-25T14:01:49;1.80;;;1.70;;
23206;SDS011;11773;52.570;13.052;2022-09-25T14:04:29;1.80;;;1.70;;
23206;SDS011;11773;52.570;13.052;2022-09-25T14:07:04;1.70;;;1.60;;
23206;SDS011;11773;52.570;13.052;2022-09-25T14:09:49;1.53;;;1.43;;
23206;SDS011;11773;52.570;13.052;2022-09-25T14:12:26;1.40;;;1.30;;
23206;SDS011;11773;52.570;13.052;2022-09-25T14:15:00;1.57;;;1.47;;
23206;SDS011;11773;52.570;13.052;2022-09-25T14:17:34;1.40;;;1.30;;
23206;SDS011;11773;52.570;13.052;2022-09-25T14:20:05;2.03;;;1.73;;
23206;SDS011;11773;52.570;13.052;2022-09-25T14:22:41;1.80;;;1.70;;
23206;SDS011;11773;52.570;13.052;2022-09-25T14:25:28;1.73;;;1.63;;
23206;SDS011;11773;52.570;13.052;2022-09-25T14:28:14;1.83;;;1.73;;
23206;SDS011;11773;52.570;13.052;2022-09-25T14:31:14;1.70;;;1.60;;
23206;SDS011;11773;52.570;13.052;2022-09-25T14:34:05;2.00;;;1.87;;
23206;SDS011;11773;52.570;13.052;2022-09-25T14:37:11;1.70;;;1.60;;
23206;SDS011;11773;52.570;13.052;2022-09-25T14:43:00;1.40;;;1.30;;
23206;SDS011;11773;52.570;13.052;2022-09-25T14:45:56;1.60;;;1.50;;
23206;SDS011;11773;52.570;13.052;2022-09-25T14:48:47;1.40;;;1.30;;
23206;SDS011;11773;52.570;13.052;2022-09-25T14:51:21;1.23;;;1.17;;
23206;SDS011;11773;52.570;13.052;2022-09-25T14:54:11;1.40;;;1.30;;
23206;SDS011;11773;52.570;13.052;2022-09-25T14:56:47;1.70;;;1.60;;
23206;SDS011;11773;52.570;13.052;2022-09-25T14:59:32;1.63;;;1.53;;
23206;SDS011;11773;52.570;13.052;2022-09-25T15:02:31;1.33;;;1.23;;
23206;SDS011;11773;52.570;13.052;2022-09-25T15:08:14;1.30;;;1.20;;
23206;SDS011;11773;52.570;13.052;2022-09-25T15:11:02;1.30;;;1.20;;
23206;SDS011;11773;52.570;13.052;2022-09-25T15:13:41;0.93;;;0.93;;
23206;SDS011;11773;52.570;13.052;2022-09-25T15:16:13;1.30;;;1.20;;
23206;SDS011;11773;52.570;13.052;2022-09-25T15:19:06;1.47;;;1.10;;
23206;SDS011;11773;52.570;13.052;2022-09-25T15:21:46;0.90;;;0.90;;
23206;SDS011;11773;52.570;13.052;2022-09-25T15:24:21;1.20;;;1.10;;
23206;SDS011;11773;52.570;13.052;2022-09-25T15:26:54;1.10;;;1.10;;
23206;SDS011;11773;52.570;13.052;2022-09-25T15:29:32;1.07;;;1.00;;
23206;SDS011;11773;52.570;13.052;2022-09-25T15:32:04;1.20;;;1.10;;
23206;SDS011;11773;52.570;13.052;2022-09-25T15:34:34;1.40;;;1.30;;
23206;SDS011;11773;52.570;13.052;2022-09-25T15:37:20;1.53;;;1.43;;
23206;SDS011;11773;52.570;13.052;2022-09-25T15:39:55;1.13;;;1.10;;
23206;SDS011;11773;52.570;13.052;2022-09-25T15:42:30;0.87;;;0.87;;
23206;SDS011;11773;52.570;13.052;2022-09-25T15:45:00;0.90;;;0.90;;
23206;SDS011;11773;52.570;13.052;2022-09-25T15:50:14;1.70;;;0.97;;
23206;SDS011;11773;52.570;13.052;2022-09-25T15:52:47;0.70;;;0.70;;
23206;SDS011;11773;52.570;13.052;2022-09-25T15:55:20;0.90;;;0.90;;
23206;SDS011;11773;52.570;13.052;2022-09-25T15:57:51;0.80;;;0.80;;
23206;SDS011;11773;52.570;13.052;2022-09-25T16:00:24;0.90;;;0.90;;
23206;SDS011;11773;52.570;13.052;2022-09-25T16:03:24;1.13;;;1.07;;
23206;SDS011;11773;52.570;13.052;2022-09-25T16:06:15;1.00;;;1.00;;
23206;SDS011;11773;52.570;13.052;2022-09-25T16:08:45;0.73;;;0.73;;
23206;SDS011;11773;52.570;13.052;2022-09-25T16:11:21;1.00;;;1.00;;
23206;SDS011;11773;52.570;13.052;2022-09-25T16:13:53;0.83;;;0.83;;
23206;SDS011;11773;52.570;13.052;2022-09-25T16:16:44;0.90;;;0.90;;
23206;SDS011;11773;52.570;13.052;2022-09-25T16:21:59;0.87;;;0.87;;
23206;SDS011;11773;52.570;13.052;2022-09-25T16:24:32;1.07;;;1.07;;
23206;SDS011;11773;52.570;13.052;2022-09-25T16:27:02;1.03;;;1.03;;
23206;SDS011;11773;52.570;13.052;2022-09-25T16:29:33;0.90;;;0.90;;
23206;SDS011;11773;52.570;13.052;2022-09-25T16:32:06;0.90;;;0.87;;
23206;SDS011;11773;52.570;13.052;2022-09-25T16:34:39;1.00;;;1.00;;
23206;SDS011;11773;52.570;13.052;2022-09-25T16:37:19;1.07;;;1.07;;
23206;SDS011;11773;52.570;13.052;2022-09-25T16:42:52;0.80;;;0.80;;
23206;SDS011;11773;52.570;13.052;2022-09-25T16:45:25;0.70;;;0.70;;
23206;SDS011;11773;52.570;13.052;2022-09-25T16:48:00;0.67;;;0.67;;
23206;SDS011;11773;52.570;13.052;2022-09-25T16:51:07;0.80;;;0.80;;
23206;SDS011;11773;52.570;13.052;2022-09-25T16:53:52;1.00;;;0.90;;
23206;SDS011;11773;52.570;13.052;2022-09-25T16:56:25;1.10;;;1.00;;
23206;SDS011;11773;52.570;13.052;2022-09-25T16:58:59;1.20;;;1.10;;
23206;SDS011;11773;52.570;13.052;2022-09-25T17:01:30;1.33;;;0.70;;
23206;SDS011;11773;52.570;13.052;2022-09-25T17:04:00;1.17;;;1.07;;
23206;SDS011;11773;52.570;13.052;2022-09-25T17:06:29;0.90;;;0.90;;
23206;SDS011;11773;52.570;13.052;2022-09-25T17:09:00;1.20;;;1.10;;
23206;SDS011;11773;52.570;13.052;2022-09-25T17:11:32;0.80;;;0.80;;